Terminal Aerodrome Forecast
Issued by NWS

Current Version | Previous Version | Graphics & Text | Print | Product List | Glossary On
Versions: 1 2 3 4 5 6 7 8 9 10 11 12 13 14 15 16 17 18 19
000
FTUS41 KILN 241700
TAFLCK
TAF
KLCK 241732Z 2418/2518 06008KT P6SM BKN200
     FM250100 12006KT P6SM BKN130
     FM250900 18014G23KT P6SM -SHRA OVC040
     FM251100 19013G23KT 4SM -SHRA SCT025 OVC035
     FM251300 18014G24KT 3SM -SHRA OVC025=

USA.gov is the U.S. government's official web portal to all federal, state and local government web resources and services.